Time;durP1;ratioP1;P1;durP2;ratioP2;P2;SDS_P1;SDS_P2;PMS_P1;PMS_P2;Temp;Humidity;BMP_temperature;BMP_pressure;BME280_temperature;BME280_humidity;BME280_pressure;Samples;Min_cycle;Max_cycle;Signal;HPM_P1;HPM_P2
2021/12/10 00:00:44;;;;;;;1.63;1.20;;;8.20;58.30;;;;;;5060446;28;20455;-86
2021/12/10 00:03:15;;;;;;;1.93;1.50;;;8.20;57.70;;;;;;5051306;28;21191;-87
2021/12/10 00:05:48;;;;;;;1.40;1.30;;;8.20;58.50;;;;;;5060679;28;20456;-86
2021/12/10 00:08:16;;;;;;;1.47;1.30;;;8.30;57.70;;;;;;5078079;28;20495;-87
2021/12/10 00:10:47;;;;;;;1.30;1.20;;;8.20;57.70;;;;;;5059764;28;20459;-87
2021/12/10 00:13:16;;;;;;;4.20;1.57;;;8.20;57.80;;;;;;5076681;28;20485;-85
2021/12/10 00:15:43;;;;;;;1.30;1.20;;;8.20;57.60;;;;;;5078066;28;20466;-85
2021/12/10 00:18:13;;;;;;;2.93;1.27;;;8.20;57.90;;;;;;5046520;28;20480;-86
2021/12/10 00:20:41;;;;;;;2.90;1.10;;;8.00;58.20;;;;;;5073690;28;20460;-86
2021/12/10 00:23:12;;;;;;;3.20;1.10;;;8.00;58.50;;;;;;5073298;28;20524;-86
2021/12/10 00:25:45;;;;;;;2.53;1.80;;;8.00;58.50;;;;;;5075603;28;20448;-87
2021/12/10 00:28:18;;;;;;;1.90;1.70;;;7.90;57.60;;;;;;5073280;28;20633;-86
2021/12/10 00:31:01;;;;;;;1.50;1.40;;;7.90;58.30;;;;;;5073901;28;20455;-87
2021/12/10 00:33:30;;;;;;;1.60;1.40;;;8.00;58.20;;;;;;5056658;28;20547;-87
2021/12/10 00:35:57;;;;;;;2.17;1.53;;;8.20;58.00;;;;;;5048047;28;20448;-87
2021/12/10 00:38:25;;;;;;;2.10;1.90;;;8.20;57.50;;;;;;5038956;28;20479;-86
2021/12/10 00:40:53;;;;;;;1.93;1.80;;;8.40;57.40;;;;;;5076333;28;20981;-86
2021/12/10 00:43:20;;;;;;;2.43;2.23;;;8.50;57.10;;;;;;5050522;28;20824;-86
2021/12/10 00:45:47;;;;;;;1.77;1.67;;;8.60;56.60;;;;;;5064679;28;20497;-86
2021/12/10 00:48:14;;;;;;;2.20;2.00;;;8.40;56.60;;;;;;5058967;28;20983;-88
2021/12/10 00:50:46;;;;;;;3.07;2.23;;;8.30;57.00;;;;;;5049110;28;20459;-86
2021/12/10 00:53:13;;;;;;;2.77;2.30;;;8.00;58.20;;;;;;5044592;28;20479;-87
2021/12/10 00:55:41;;;;;;;2.33;1.73;;;8.20;57.80;;;;;;5044591;28;20495;-86
2021/12/10 00:58:08;;;;;;;3.00;1.87;;;8.30;57.50;;;;;;5054404;28;20464;-88
2021/12/10 01:00:40;;;;;;;1.90;1.63;;;8.40;57.00;;;;;;5055977;28;21032;-89
2021/12/10 01:03:10;;;;;;;2.47;1.80;;;8.30;57.40;;;;;;5047074;28;20452;-86
2021/12/10 01:05:39;;;;;;;2.20;2.00;;;8.30;57.10;;;;;;5039458;28;20813;-86
2021/12/10 01:08:07;;;;;;;3.77;2.67;;;8.40;57.50;;;;;;5054119;28;20484;-88
2021/12/10 01:10:51;;;;;;;1.90;1.80;;;8.40;58.00;;;;;;5073604;28;20456;-86
2021/12/10 01:13:25;;;;;;;2.80;2.23;;;8.40;57.20;;;;;;5055478;28;20472;-86
2021/12/10 01:16:11;;;;;;;4.47;3.10;;;8.30;57.70;;;;;;5075619;28;20495;-86
2021/12/10 01:24:32;;;;;;;3.77;3.20;;;8.40;57.10;;;;;;5057894;28;20460;-87
2021/12/10 01:27:10;;;;;;;3.40;2.67;;;8.40;57.40;;;;;;5047043;28;20561;-86
2021/12/10 01:29:40;;;;;;;4.00;3.67;;;8.20;57.90;;;;;;5074082;28;20457;-87
2021/12/10 01:32:09;;;;;;;13.80;3.60;;;8.20;58.00;;;;;;5060902;28;20455;-86
2021/12/10 01:34:36;;;;;;;5.70;3.50;;;8.20;57.80;;;;;;5074512;28;20473;-86
2021/12/10 01:37:05;;;;;;;4.00;3.60;;;8.20;57.80;;;;;;5039654;28;20449;-86
2021/12/10 01:39:35;;;;;;;4.07;3.67;;;8.20;58.00;;;;;;5066627;28;20455;-87
2021/12/10 01:42:15;;;;;;;5.57;3.47;;;8.20;58.10;;;;;;5058843;28;20468;-87
2021/12/10 01:44:45;;;;;;;8.30;4.33;;;8.00;58.00;;;;;;5077003;28;20493;-86
2021/12/10 01:47:14;;;;;;;7.73;3.90;;;8.20;58.20;;;;;;5054520;28;20448;-87
2021/12/10 01:49:43;;;;;;;3.50;3.20;;;8.10;57.90;;;;;;5058413;28;20945;-86
2021/12/10 01:52:11;;;;;;;7.33;3.83;;;8.10;58.50;;;;;;5060641;28;20537;-86
2021/12/10 01:54:42;;;;;;;5.37;3.77;;;8.20;57.60;;;;;;5079629;28;20487;-86
2021/12/10 01:57:15;;;;;;;9.10;4.17;;;8.10;57.90;;;;;;5064422;28;20976;-85
2021/12/10 01:59:44;;;;;;;9.13;4.80;;;8.20;57.60;;;;;;5079151;28;20459;-86
2021/12/10 02:02:16;;;;;;;6.63;3.47;;;8.10;57.50;;;;;;5044366;28;20982;-86
2021/12/10 02:04:44;;;;;;;5.30;3.37;;;8.10;58.00;;;;;;5043765;28;20526;-86
2021/12/10 02:07:14;;;;;;;4.20;3.80;;;8.20;58.00;;;;;;5064546;28;21245;-86
2021/12/10 02:09:41;;;;;;;8.20;3.63;;;8.30;57.80;;;;;;5077510;28;20456;-86
2021/12/10 02:12:10;;;;;;;5.13;3.07;;;8.00;57.90;;;;;;5074320;28;20464;-86
2021/12/10 02:14:37;;;;;;;7.30;2.90;;;8.10;58.30;;;;;;5063128;28;20843;-86
2021/12/10 02:17:05;;;;;;;6.20;3.43;;;8.20;57.60;;;;;;5060671;28;20437;-86
2021/12/10 02:19:34;;;;;;;8.23;3.40;;;7.90;58.50;;;;;;5073726;28;20449;-86
2021/12/10 02:22:04;;;;;;;4.07;3.13;;;7.80;58.60;;;;;;5058266;28;20812;-88
2021/12/10 02:24:31;;;;;;;7.40;3.83;;;8.00;58.40;;;;;;5041658;28;20463;-87
2021/12/10 02:27:00;;;;;;;7.40;3.90;;;8.10;58.00;;;;;;5061367;28;20447;-89
2021/12/10 02:29:31;;;;;;;5.27;2.73;;;8.20;57.90;;;;;;5060537;28;20468;-88
2021/12/10 02:31:58;;;;;;;4.10;2.50;;;8.30;57.40;;;;;;5050958;28;20818;-86
2021/12/10 02:34:28;;;;;;;7.47;2.83;;;8.40;56.70;;;;;;5045673;28;21215;-86
2021/12/10 02:36:56;;;;;;;7.77;3.37;;;8.30;56.40;;;;;;5079665;28;21057;-86
2021/12/10 02:39:26;;;;;;;4.60;3.10;;;8.30;56.90;;;;;;5065157;28;20480;-86
2021/12/10 02:41:53;;;;;;;12.50;3.23;;;8.30;56.60;;;;;;5048553;28;21000;-86
2021/12/10 02:44:23;;;;;;;5.27;3.37;;;8.20;56.70;;;;;;5060417;28;20451;-85
2021/12/10 02:46:51;;;;;;;6.90;2.40;;;7.90;57.10;;;;;;5058900;28;20458;-86
2021/12/10 02:49:19;;;;;;;8.10;3.23;;;7.90;57.50;;;;;;5047513;28;20464;-86
2021/12/10 02:51:46;;;;;;;5.77;2.50;;;8.10;57.40;;;;;;5076238;28;21281;-88
2021/12/10 02:54:20;;;;;;;7.00;3.07;;;8.30;57.10;;;;;;5078628;28;20474;-86
2021/12/10 02:56:49;;;;;;;3.40;2.43;;;8.40;56.40;;;;;;5061112;28;20467;-87
2021/12/10 02:59:16;;;;;;;7.37;3.27;;;8.40;56.60;;;;;;5076727;28;20604;-86
2021/12/10 03:01:45;;;;;;;5.00;3.40;;;8.50;56.50;;;;;;5063553;28;20455;-86
2021/12/10 03:04:13;;;;;;;3.30;2.43;;;8.60;56.20;;;;;;5064403;28;21009;-87
2021/12/10 03:06:44;;;;;;;5.30;2.30;;;8.50;55.80;;;;;;5061399;28;20573;-88
2021/12/10 03:09:12;;;;;;;2.70;2.50;;;8.60;55.80;;;;;;5063212;28;20506;-88
2021/12/10 03:11:45;;;;;;;4.97;2.50;;;8.60;55.60;;;;;;5077839;28;20459;-87
2021/12/10 03:14:17;;;;;;;6.10;2.53;;;8.60;55.50;;;;;;5061419;28;20529;-86
2021/12/10 03:16:45;;;;;;;3.90;2.73;;;8.50;55.40;;;;;;5077801;28;20455;-87
2021/12/10 03:19:12;;;;;;;5.50;2.67;;;8.50;55.60;;;;;;5063802;28;20472;-87
2021/12/10 03:21:42;;;;;;;5.90;2.40;;;8.50;55.40;;;;;;5062387;28;20456;-86
2021/12/10 03:24:09;;;;;;;3.83;2.50;;;8.40;55.40;;;;;;5076939;28;20550;-84
2021/12/10 03:26:36;;;;;;;4.03;2.60;;;8.40;55.40;;;;;;5079147;28;20452;-86
2021/12/10 03:29:04;;;;;;;6.30;2.83;;;8.30;55.60;;;;;;5063541;28;20475;-86
2021/12/10 03:31:33;;;;;;;7.37;2.60;;;8.30;56.20;;;;;;5075386;28;20451;-86
2021/12/10 03:34:01;;;;;;;3.90;2.80;;;8.20;56.00;;;;;;5049672;28;20471;-86
2021/12/10 03:36:28;;;;;;;4.43;2.13;;;8.20;56.30;;;;;;5061551;28;20543;-86
2021/12/10 03:38:56;;;;;;;8.60;2.90;;;8.20;56.00;;;;;;5063954;28;20471;-87
2021/12/10 03:41:24;;;;;;;9.60;2.70;;;8.30;56.00;;;;;;5076718;28;20456;-86
2021/12/10 03:43:53;;;;;;;10.60;2.20;;;8.20;55.90;;;;;;5057549;28;21130;-86
2021/12/10 03:46:21;;;;;;;6.23;2.93;;;8.20;55.80;;;;;;5048209;28;20456;-85
2021/12/10 03:48:49;;;;;;;8.70;2.77;;;8.10;55.60;;;;;;5058169;28;20476;-86
2021/12/10 03:51:20;;;;;;;5.97;2.70;;;7.90;55.90;;;;;;5066523;28;20448;-87
2021/12/10 03:53:48;;;;;;;7.60;2.83;;;7.90;56.00;;;;;;5057497;28;20988;-86
2021/12/10 03:56:17;;;;;;;9.80;2.80;;;7.80;55.90;;;;;;5061555;28;20445;-86
2021/12/10 03:58:45;;;;;;;4.20;2.50;;;7.80;55.90;;;;;;5044314;28;20471;-86
2021/12/10 04:01:17;;;;;;;3.30;2.87;;;7.80;55.60;;;;;;5047011;28;21045;-87
2021/12/10 04:03:45;;;;;;;10.40;2.83;;;7.60;55.60;;;;;;5077949;28;20461;-86
2021/12/10 04:06:14;;;;;;;3.67;2.30;;;7.60;55.70;;;;;;5079541;28;20470;-87
2021/12/10 04:08:41;;;;;;;4.30;2.60;;;7.50;55.70;;;;;;5047904;28;20468;-87
2021/12/10 04:11:09;;;;;;;3.93;2.20;;;7.50;55.50;;;;;;5076424;28;20457;-86
2021/12/10 04:13:37;;;;;;;4.10;2.30;;;7.50;55.70;;;;;;5042739;28;20457;-84
2021/12/10 04:16:04;;;;;;;3.97;2.63;;;7.50;56.00;;;;;;5060155;28;20460;-86
2021/12/10 04:18:34;;;;;;;17.17;8.93;;;7.40;56.00;;;;;;5040356;28;20491;-87
2021/12/10 04:21:01;;;;;;;21.07;8.73;;;7.40;55.80;;;;;;5077927;28;20456;-87
2021/12/10 04:23:29;;;;;;;15.60;8.30;;;7.40;55.70;;;;;;5056558;28;20459;-86
2021/12/10 04:25:56;;;;;;;10.73;5.80;;;7.30;55.90;;;;;;5057540;28;20451;-86
2021/12/10 04:28:24;;;;;;;7.47;4.57;;;7.30;56.00;;;;;;5041658;28;20484;-85
2021/12/10 04:30:52;;;;;;;7.07;3.90;;;7.20;56.00;;;;;;5029843;28;20447;-85
2021/12/10 04:33:22;;;;;;;15.90;5.30;;;7.30;55.90;;;;;;5042332;28;21175;-85
2021/12/10 04:35:52;;;;;;;8.07;4.90;;;7.20;56.00;;;;;;5061782;28;21062;-85
2021/12/10 04:38:20;;;;;;;13.67;6.80;;;7.20;55.90;;;;;;5060365;28;20472;-85
2021/12/10 04:40:50;;;;;;;49.50;26.97;;;7.30;55.80;;;;;;5065605;28;20452;-85
2021/12/10 04:43:19;;;;;;;34.43;16.53;;;7.30;55.70;;;;;;5056910;28;20441;-85
2021/12/10 04:45:47;;;;;;;24.00;13.77;;;7.40;55.60;;;;;;5061005;28;20459;-85
2021/12/10 04:48:14;;;;;;;19.30;8.10;;;7.30;55.60;;;;;;5072939;28;20464;-85
2021/12/10 04:50:41;;;;;;;19.07;5.67;;;7.40;55.50;;;;;;5077980;28;21131;-85
2021/12/10 04:53:10;;;;;;;8.00;5.00;;;7.40;55.40;;;;;;5058583;28;20483;-86
2021/12/10 04:55:38;;;;;;;8.27;5.93;;;7.40;55.10;;;;;;5075265;28;20803;-85
2021/12/10 04:58:07;;;;;;;10.93;4.97;;;7.40;55.20;;;;;;5060128;28;20486;-85
2021/12/10 05:00:37;;;;;;;10.70;5.63;;;7.30;55.30;;;;;;5045727;28;20451;-87
2021/12/10 05:03:05;;;;;;;12.17;6.50;;;7.10;55.70;;;;;;5079258;28;20502;-85
2021/12/10 05:05:34;;;;;;;10.80;7.07;;;7.10;55.90;;;;;;5075043;28;20986;-85
2021/12/10 05:08:01;;;;;;;15.30;7.50;;;6.90;56.00;;;;;;5045827;28;20579;-86
2021/12/10 05:10:28;;;;;;;16.87;6.30;;;7.00;56.20;;;;;;5075288;28;20457;-85
2021/12/10 05:12:55;;;;;;;9.13;5.00;;;7.00;55.80;;;;;;5058386;28;20462;-85
2021/12/10 05:15:27;;;;;;;9.30;5.63;;;7.10;56.30;;;;;;5054125;28;20836;-86
2021/12/10 05:17:55;;;;;;;9.87;6.80;;;7.10;55.60;;;;;;5074760;28;20464;-84
2021/12/10 05:20:26;;;;;;;9.20;5.90;;;7.20;55.60;;;;;;5050820;28;20536;-85
2021/12/10 05:22:53;;;;;;;16.80;7.70;;;7.20;55.50;;;;;;5073173;28;20457;-86
2021/12/10 05:25:20;;;;;;;8.40;7.13;;;7.20;55.30;;;;;;5055788;28;20475;-85
2021/12/10 05:27:48;;;;;;;5.53;4.97;;;7.10;55.10;;;;;;5044301;28;20472;-85
2021/12/10 05:30:18;;;;;;;5.83;4.00;;;7.00;55.50;;;;;;5055527;28;20451;-85
2021/12/10 05:32:46;;;;;;;6.60;4.47;;;6.80;55.60;;;;;;5040581;28;20456;-85
2021/12/10 05:35:13;;;;;;;15.43;5.23;;;6.90;55.90;;;;;;5034463;28;20468;-87
2021/12/10 05:37:40;;;;;;;11.80;6.77;;;7.00;55.80;;;;;;5041187;28;20496;-85
2021/12/10 05:40:12;;;;;;;10.43;5.40;;;7.00;55.50;;;;;;5059156;28;20464;-84
2021/12/10 05:42:39;;;;;;;9.70;4.00;;;6.90;55.50;;;;;;5075267;28;20449;-85
2021/12/10 05:45:07;;;;;;;6.57;3.60;;;6.90;55.60;;;;;;5057692;28;20975;-85
2021/12/10 05:47:34;;;;;;;5.00;3.97;;;6.80;55.40;;;;;;5040095;28;20472;-84
2021/12/10 05:50:04;;;;;;;6.97;4.10;;;6.80;55.60;;;;;;5059251;28;20448;-86
2021/12/10 05:52:31;;;;;;;7.60;4.47;;;6.70;55.60;;;;;;5060080;28;20499;-85
2021/12/10 05:54:58;;;;;;;11.73;4.17;;;6.70;55.50;;;;;;5056827;28;21096;-86
2021/12/10 05:57:25;;;;;;;3.60;3.17;;;6.70;55.50;;;;;;5040986;28;20481;-85
2021/12/10 05:59:52;;;;;;;5.60;5.10;;;6.60;55.30;;;;;;5054267;28;20460;-85
2021/12/10 06:02:19;;;;;;;14.37;9.90;;;6.60;55.40;;;;;;5072742;28;20461;-85
2021/12/10 06:04:46;;;;;;;14.70;7.97;;;6.70;55.30;;;;;;5072640;28;20460;-85
2021/12/10 06:07:15;;;;;;;14.40;8.43;;;6.70;55.20;;;;;;5075870;28;20538;-85
2021/12/10 06:09:42;;;;;;;23.07;11.00;;;6.70;55.20;;;;;;5044776;28;20468;-85
2021/12/10 06:12:09;;;;;;;11.20;7.57;;;6.80;54.90;;;;;;5038565;28;20460;-87
2021/12/10 06:14:36;;;;;;;11.37;5.37;;;6.90;54.60;;;;;;5061465;28;21004;-85
2021/12/10 06:17:04;;;;;;;7.93;3.83;;;6.90;54.30;;;;;;5056300;28;20974;-86
2021/12/10 06:19:30;;;;;;;5.77;3.87;;;6.90;54.20;;;;;;5054767;28;20452;-86
2021/12/10 06:21:57;;;;;;;3.40;3.10;;;6.90;54.10;;;;;;5055596;28;20464;-86
2021/12/10 06:24:26;;;;;;;4.57;3.30;;;6.90;53.90;;;;;;5071258;28;20468;-87
2021/12/10 06:26:53;;;;;;;4.30;3.80;;;6.80;54.40;;;;;;5055796;28;20452;-85
2021/12/10 06:29:22;;;;;;;6.17;4.07;;;6.80;53.90;;;;;;5051004;28;20478;-86
2021/12/10 06:31:49;;;;;;;3.17;2.87;;;6.70;54.10;;;;;;5056881;28;20448;-86
2021/12/10 06:34:16;;;;;;;6.37;5.67;;;6.60;54.40;;;;;;5055587;28;20445;-87
2021/12/10 06:36:43;;;;;;;3.47;3.00;;;6.60;54.20;;;;;;5043469;28;20497;-85
2021/12/10 06:39:11;;;;;;;4.80;4.07;;;6.60;54.30;;;;;;5057747;28;20491;-86
2021/12/10 06:41:39;;;;;;;7.60;4.40;;;6.40;54.30;;;;;;5042739;28;20463;-85
2021/12/10 06:44:06;;;;;;;5.50;4.30;;;6.20;54.80;;;;;;5059620;28;20444;-87
2021/12/10 06:46:33;;;;;;;5.10;3.77;;;6.10;55.70;;;;;;5059530;28;20896;-86
2021/12/10 06:49:00;;;;;;;9.90;4.40;;;6.10;55.50;;;;;;5058091;28;20479;-86
2021/12/10 06:51:28;;;;;;;18.03;5.50;;;5.90;55.50;;;;;;5049545;28;20461;-87
2021/12/10 06:53:55;;;;;;;4.37;3.63;;;5.60;56.30;;;;;;5061890;28;20448;-86
2021/12/10 06:56:23;;;;;;;5.93;2.50;;;5.70;56.30;;;;;;5055737;28;20475;-87
2021/12/10 06:58:52;;;;;;;6.27;4.03;;;5.60;56.10;;;;;;5057837;28;20463;-87
2021/12/10 07:01:24;;;;;;;14.77;3.30;;;5.80;56.20;;;;;;5056691;28;20554;-86
2021/12/10 07:03:52;;;;;;;2.87;2.37;;;5.70;56.20;;;;;;5042966;28;20452;-86
2021/12/10 07:06:20;;;;;;;8.43;2.93;;;5.80;56.10;;;;;;5075378;28;20502;-87
2021/12/10 07:08:48;;;;;;;3.43;3.03;;;5.50;56.10;;;;;;5078403;28;21408;-86
2021/12/10 07:11:17;;;;;;;5.23;3.13;;;5.40;56.90;;;;;;5072459;28;21148;-86
2021/12/10 07:13:46;;;;;;;8.50;4.67;;;5.70;56.80;;;;;;5047043;28;20486;-86
2021/12/10 07:16:15;;;;;;;5.73;3.70;;;5.80;56.30;;;;;;5077439;28;20479;-83
2021/12/10 07:18:43;;;;;;;8.13;4.00;;;5.90;56.10;;;;;;5077050;28;20479;-85
2021/12/10 07:21:11;;;;;;;6.07;3.60;;;6.10;55.80;;;;;;5052996;28;20466;-83
2021/12/10 07:23:40;;;;;;;11.10;6.90;;;6.20;55.50;;;;;;5077517;28;20456;-85
2021/12/10 07:26:07;;;;;;;51.97;21.17;;;6.20;55.20;;;;;;5059239;28;20452;-85
2021/12/10 07:28:34;;;;;;;69.10;37.23;;;6.30;55.10;;;;;;5078073;28;20490;-85
2021/12/10 07:31:01;;;;;;;15.30;9.63;;;6.30;54.80;;;;;;5078437;28;20456;-85
2021/12/10 07:33:30;;;;;;;13.83;5.30;;;6.30;54.80;;;;;;5081347;28;20468;-86
2021/12/10 07:35:57;;;;;;;8.70;5.93;;;6.40;54.80;;;;;;5061568;28;21005;-85
2021/12/10 07:38:24;;;;;;;9.63;5.73;;;6.50;54.70;;;;;;5078364;28;20838;-87
2021/12/10 07:40:52;;;;;;;10.53;7.40;;;6.60;54.60;;;;;;5049407;28;20459;-87
2021/12/10 07:43:20;;;;;;;18.73;9.57;;;6.60;54.10;;;;;;5048905;28;20461;-86
2021/12/10 07:45:49;;;;;;;14.23;6.83;;;6.60;53.80;;;;;;5062189;28;20447;-86
2021/12/10 07:48:19;;;;;;;15.70;6.40;;;6.60;53.80;;;;;;5048657;28;20534;-85
2021/12/10 07:50:55;;;;;;;10.10;4.83;;;6.50;53.80;;;;;;5078359;28;20452;-85
2021/12/10 07:53:24;;;;;;;5.67;4.60;;;6.50;53.80;;;;;;5075329;28;21058;-86
2021/12/10 07:55:52;;;;;;;8.67;4.97;;;6.50;53.80;;;;;;5066171;28;20476;-86
2021/12/10 07:58:19;;;;;;;8.53;5.20;;;6.40;54.00;;;;;;5049902;28;20538;-85
2021/12/10 08:00:47;;;;;;;8.37;5.20;;;6.40;54.10;;;;;;5060577;28;20907;-86
2021/12/10 08:03:14;;;;;;;8.43;5.27;;;6.40;54.00;;;;;;5045133;28;20456;-86
2021/12/10 08:05:43;;;;;;;8.47;4.90;;;6.40;53.70;;;;;;5045740;28;20468;-85
2021/12/10 08:08:11;;;;;;;15.57;5.00;;;6.40;53.80;;;;;;5076127;28;20479;-86
2021/12/10 08:10:42;;;;;;;7.13;4.77;;;6.50;53.70;;;;;;5032737;28;20460;-86
2021/12/10 08:13:09;;;;;;;9.40;5.80;;;6.50;53.50;;;;;;5057710;28;20799;-86
2021/12/10 08:15:37;;;;;;;6.20;5.10;;;6.50;53.40;;;;;;5071516;28;20468;-85
2021/12/10 08:18:05;;;;;;;8.20;6.23;;;6.50;53.30;;;;;;5043842;28;20550;-87
2021/12/10 08:20:32;;;;;;;17.07;7.07;;;6.50;53.60;;;;;;5073082;28;20457;-86
2021/12/10 08:23:00;;;;;;;9.23;5.43;;;6.50;53.50;;;;;;5049660;28;20870;-86
2021/12/10 08:25:30;;;;;;;13.50;6.30;;;6.50;53.50;;;;;;5073780;28;20460;-86
2021/12/10 08:27:58;;;;;;;10.13;6.00;;;6.50;53.50;;;;;;5064365;28;20512;-86
2021/12/10 08:30:27;;;;;;;5.23;4.40;;;6.50;53.60;;;;;;5049153;28;20456;-86
2021/12/10 08:32:56;;;;;;;9.00;5.03;;;6.40;53.70;;;;;;5033268;28;20471;-86
2021/12/10 08:35:26;;;;;;;8.70;4.77;;;6.00;54.90;;;;;;5056710;28;20491;-86
2021/12/10 08:37:54;;;;;;;10.00;5.80;;;5.90;55.80;;;;;;5041085;28;20560;-85
2021/12/10 08:40:24;;;;;;;11.47;7.10;;;6.00;56.00;;;;;;5056469;28;21139;-86
2021/12/10 08:42:54;;;;;;;8.53;6.97;;;6.00;56.10;;;;;;5032736;28;20460;-86
2021/12/10 08:45:24;;;;;;;52.97;22.23;;;6.00;56.10;;;;;;5074402;28;20489;-84
2021/12/10 08:47:52;;;;;;;11.87;5.93;;;5.90;56.30;;;;;;5074711;28;21138;-87
2021/12/10 08:50:23;;;;;;;13.50;7.00;;;5.80;56.60;;;;;;5058093;28;21176;-88
2021/12/10 08:52:51;;;;;;;13.17;7.57;;;5.90;56.90;;;;;;5077777;28;20456;-86
2021/12/10 08:55:19;;;;;;;11.30;7.00;;;6.10;56.60;;;;;;5074688;28;20470;-83
2021/12/10 08:57:46;;;;;;;12.10;7.13;;;6.20;56.30;;;;;;5072397;28;20478;-86
2021/12/10 09:00:16;;;;;;;13.37;6.30;;;6.40;55.90;;;;;;5033754;28;20449;-86
2021/12/10 09:02:43;;;;;;;13.50;7.40;;;6.50;55.50;;;;;;5042427;28;20456;-85
2021/12/10 09:05:12;;;;;;;7.83;6.20;;;6.60;55.40;;;;;;5055485;28;20437;-86
2021/12/10 09:07:42;;;;;;;10.20;6.70;;;6.70;55.20;;;;;;5072459;28;20472;-86
2021/12/10 09:10:10;;;;;;;12.37;6.40;;;6.70;55.10;;;;;;5057443;28;20468;-86
2021/12/10 09:12:38;;;;;;;12.77;7.53;;;6.70;55.00;;;;;;5056112;28;20459;-87
2021/12/10 09:15:07;;;;;;;18.70;7.37;;;6.60;55.00;;;;;;5058437;28;20439;-86
2021/12/10 09:17:38;;;;;;;16.67;8.20;;;6.50;55.10;;;;;;5070883;28;20479;-84
2021/12/10 09:20:09;;;;;;;20.57;8.87;;;6.40;55.40;;;;;;5060514;28;20819;-86
2021/12/10 09:22:36;;;;;;;16.77;8.50;;;6.40;55.50;;;;;;5066136;28;20451;-86
2021/12/10 09:25:06;;;;;;;14.13;8.27;;;6.50;55.50;;;;;;5048822;28;20484;-87
2021/12/10 09:27:33;;;;;;;9.80;6.80;;;6.60;55.30;;;;;;5055917;28;20468;-86
2021/12/10 09:30:00;;;;;;;15.93;8.10;;;6.40;55.60;;;;;;5062093;28;20511;-86
2021/12/10 09:32:28;;;;;;;21.13;9.63;;;6.60;55.60;;;;;;5059292;28;20449;-86
2021/12/10 09:35:02;;;;;;;12.70;7.83;;;6.60;55.50;;;;;;5077557;28;20466;-86
2021/12/10 09:37:30;;;;;;;23.03;8.90;;;6.70;55.40;;;;;;5058178;28;20466;-86
2021/12/10 09:39:57;;;;;;;17.23;8.60;;;6.80;55.20;;;;;;5056112;28;20461;-86
2021/12/10 09:42:25;;;;;;;18.80;10.73;;;6.90;55.00;;;;;;5059338;28;20546;-87
2021/12/10 09:44:54;;;;;;;20.70;11.53;;;6.90;54.70;;;;;;5048433;28;20456;-86
2021/12/10 09:47:21;;;;;;;30.03;14.33;;;6.70;55.00;;;;;;5072881;28;20457;-87
2021/12/10 09:49:51;;;;;;;21.43;12.13;;;6.80;55.10;;;;;;5058855;28;20448;-86
2021/12/10 09:52:22;;;;;;;21.00;11.77;;;6.90;54.90;;;;;;5048235;28;20593;-86
2021/12/10 09:54:50;;;;;;;19.33;11.50;;;7.00;54.80;;;;;;5042647;28;20987;-86
2021/12/10 09:57:21;;;;;;;15.80;8.60;;;7.00;54.40;;;;;;5054744;28;20604;-86
2021/12/10 09:59:51;;;;;;;18.77;9.90;;;6.80;54.20;;;;;;5073276;28;20562;-86
2021/12/10 10:02:19;;;;;;;16.10;8.37;;;6.80;54.70;;;;;;5074370;28;20517;-86
2021/12/10 10:04:49;;;;;;;14.30;7.57;;;6.80;54.70;;;;;;5058357;28;20453;-86
2021/12/10 10:07:21;;;;;;;19.93;7.83;;;6.90;54.50;;;;;;5053444;28;20531;-86
2021/12/10 10:09:52;;;;;;;18.30;10.67;;;6.90;54.50;;;;;;5057678;28;21131;-86
2021/12/10 10:12:23;;;;;;;15.83;9.73;;;7.00;54.40;;;;;;5058393;28;20444;-85
2021/12/10 10:14:51;;;;;;;16.47;8.30;;;7.00;54.10;;;;;;5067640;28;20451;-86
2021/12/10 10:17:19;;;;;;;16.37;8.43;;;7.00;54.10;;;;;;5059184;28;20509;-86
2021/12/10 10:19:46;;;;;;;23.57;9.53;;;7.10;54.30;;;;;;5077718;28;20459;-85
2021/12/10 10:22:21;;;;;;;18.80;10.10;;;7.10;54.10;;;;;;5076093;28;20460;-86
2021/12/10 10:24:48;;;;;;;25.60;11.97;;;7.10;54.00;;;;;;5052959;28;20482;-86
2021/12/10 10:27:18;;;;;;;32.90;19.40;;;7.20;54.00;;;;;;5059301;28;20467;-85
2021/12/10 10:29:52;;;;;;;19.60;10.43;;;7.10;53.50;;;;;;5052204;28;20547;-86
2021/12/10 10:32:23;;;;;;;15.17;8.70;;;7.10;53.90;;;;;;5079362;28;20455;-86
2021/12/10 10:34:54;;;;;;;22.60;14.47;;;7.20;54.10;;;;;;5062766;28;20483;-86
2021/12/10 10:37:23;;;;;;;25.30;12.73;;;7.30;54.20;;;;;;5077375;28;20476;-84
2021/12/10 10:39:51;;;;;;;26.07;13.07;;;7.30;54.00;;;;;;5058656;28;20979;-83
2021/12/10 10:42:24;;;;;;;24.30;14.37;;;7.40;54.00;;;;;;5066186;28;20963;-86
2021/12/10 10:44:52;;;;;;;26.47;13.07;;;7.50;53.90;;;;;;5057289;28;20448;-86
2021/12/10 10:47:22;;;;;;;19.53;12.57;;;7.60;54.00;;;;;;5076496;28;20459;-86
2021/12/10 10:49:53;;;;;;;16.53;9.70;;;7.70;54.10;;;;;;5075867;28;21064;-85
2021/12/10 10:52:28;;;;;;;15.17;10.03;;;7.70;54.20;;;;;;5078131;28;20452;-85
2021/12/10 10:54:58;;;;;;;14.97;9.00;;;7.60;53.30;;;;;;5078787;28;20447;-85
2021/12/10 10:57:28;;;;;;;14.40;9.60;;;7.70;53.80;;;;;;5062349;28;20479;-85
2021/12/10 10:59:58;;;;;;;17.83;9.90;;;7.70;53.90;;;;;;5075389;28;20452;-86
2021/12/10 11:02:37;;;;;;;19.00;7.93;;;7.70;53.60;;;;;;5060667;28;20448;-86
2021/12/10 11:05:10;;;;;;;19.60;8.93;;;7.80;53.40;;;;;;5047948;28;20492;-86
2021/12/10 11:07:45;;;;;;;9.03;6.20;;;7.70;53.30;;;;;;5079301;28;21215;-86
2021/12/10 11:10:12;;;;;;;12.50;7.20;;;7.70;53.70;;;;;;5076148;28;20456;-86
2021/12/10 11:12:42;;;;;;;16.00;8.30;;;7.70;53.60;;;;;;5060568;28;20616;-85
2021/12/10 11:15:11;;;;;;;16.33;8.43;;;7.80;53.60;;;;;;5078093;28;20488;-84
2021/12/10 11:17:42;;;;;;;19.53;8.57;;;7.80;53.50;;;;;;5064770;28;20834;-85
2021/12/10 11:20:14;;;;;;;17.50;10.57;;;7.90;53.60;;;;;;5066772;28;20448;-84
2021/12/10 11:22:48;;;;;;;26.20;11.77;;;8.00;53.40;;;;;;5078201;28;20985;-85
2021/12/10 11:25:19;;;;;;;10.20;7.40;;;7.90;52.70;;;;;;5079424;28;20824;-85
2021/12/10 11:27:47;;;;;;;12.93;6.50;;;7.90;52.90;;;;;;5078150;28;20467;-85
2021/12/10 11:30:17;;;;;;;12.50;7.40;;;7.90;52.60;;;;;;5051317;28;20977;-85
2021/12/10 11:32:47;;;;;;;7.67;5.73;;;8.00;53.00;;;;;;5045915;28;20452;-85
2021/12/10 11:35:16;;;;;;;22.50;13.77;;;8.10;53.50;;;;;;5062058;28;20472;-85
2021/12/10 11:37:55;;;;;;;45.30;19.97;;;8.20;53.10;;;;;;5064095;28;20861;-85
2021/12/10 11:40:52;;;;;;;404.93;135.13;;;7.90;51.90;;;;;;5051084;28;20451;-87
2021/12/10 11:43:44;;;;;;;103.57;47.10;;;7.90;52.20;;;;;;5082244;28;20472;-85
2021/12/10 11:46:31;;;;;;;101.47;40.97;;;7.70;52.20;;;;;;5062969;28;20453;-84
2021/12/10 11:49:11;;;;;;;95.20;35.97;;;7.70;52.20;;;;;;5065740;28;20482;-85
2021/12/10 11:51:42;;;;;;;28.97;14.10;;;7.60;52.30;;;;;;5088224;28;20458;-85
2021/12/10 11:54:22;;;;;;;18.30;9.90;;;7.70;52.50;;;;;;5044904;28;20455;-86
2021/12/10 11:56:54;;;;;;;25.63;13.13;;;7.80;52.50;;;;;;5084022;28;20874;-86
2021/12/10 11:59:25;;;;;;;16.67;9.80;;;7.60;52.30;;;;;;5064767;28;20847;-85
2021/12/10 12:01:56;;;;;;;12.27;7.13;;;7.60;52.40;;;;;;5062154;28;20470;-86
2021/12/10 12:04:28;;;;;;;16.47;9.40;;;7.50;52.30;;;;;;5081070;28;20448;-86
2021/12/10 12:07:33;;;;;;;9.47;5.53;;;7.70;52.60;;;;;;5053311;28;20455;-85
2021/12/10 12:10:11;;;;;;;8.90;5.03;;;7.50;52.10;;;;;;5077688;28;20463;-86
2021/12/10 12:12:40;;;;;;;19.23;9.97;;;7.60;52.60;;;;;;5064791;28;20463;-86
2021/12/10 12:15:26;;;;;;;14.73;6.90;;;7.60;52.30;;;;;;5073986;28;20460;-85
2021/12/10 12:17:56;;;;;;;11.50;5.37;;;7.80;52.60;;;;;;5074981;28;20480;-86
2021/12/10 12:20:27;;;;;;;10.83;6.70;;;7.80;52.20;;;;;;5075529;28;20456;-85
2021/12/10 12:25:47;;;;;;;21.50;9.87;;;7.60;52.40;;;;;;5023011;28;20445;-86
2021/12/10 12:28:16;;;;;;;11.03;7.50;;;7.50;52.90;;;;;;5049903;28;20467;-85
2021/12/10 12:30:55;;;;;;;17.87;7.83;;;7.50;53.10;;;;;;5068394;28;20497;-84
2021/12/10 12:33:27;;;;;;;12.80;7.10;;;7.50;52.70;;;;;;5063243;28;21061;-86
2021/12/10 12:35:55;;;;;;;12.50;6.97;;;7.30;53.10;;;;;;5058676;28;20988;-86
2021/12/10 12:38:27;;;;;;;14.77;7.80;;;7.40;52.60;;;;;;5045509;28;20484;-86
2021/12/10 12:41:16;;;;;;;16.73;7.40;;;7.50;52.70;;;;;;5064371;28;20460;-86
2021/12/10 12:43:46;;;;;;;14.37;6.13;;;7.70;52.50;;;;;;5077295;28;20452;-86
2021/12/10 12:46:14;;;;;;;7.77;4.93;;;7.50;52.10;;;;;;5068115;28;20936;-86
2021/12/10 12:48:56;;;;;;;10.57;5.77;;;7.50;52.10;;;;;;5066820;28;20475;-86
2021/12/10 12:51:24;;;;;;;15.90;5.47;;;7.50;52.10;;;;;;5078508;28;20457;-86
2021/12/10 12:53:53;;;;;;;7.00;5.60;;;7.50;52.50;;;;;;5081074;28;20459;-86
2021/12/10 12:56:24;;;;;;;15.10;7.30;;;7.70;52.40;;;;;;5043860;28;20467;-86
2021/12/10 12:58:55;;;;;;;10.13;6.20;;;7.90;52.70;;;;;;5063385;28;20487;-86
2021/12/10 13:01:27;;;;;;;7.97;5.27;;;8.00;52.40;;;;;;5042049;28;20464;-86
2021/12/10 13:03:58;;;;;;;10.47;4.70;;;8.00;51.00;;;;;;5059409;28;20451;-85
2021/12/10 13:06:29;;;;;;;7.50;5.00;;;8.00;51.00;;;;;;5065982;28;20461;-87
2021/12/10 13:09:02;;;;;;;5.90;4.30;;;7.60;50.80;;;;;;5060301;28;20511;-86
2021/12/10 13:11:47;;;;;;;9.27;5.17;;;7.20;51.40;;;;;;5061098;28;20466;-86